Aeroporto :







RITROVATECI SU...

 
LOGIN :

Iscrizione | Disclaimer

   EN    FR    IT 

 









Sommario :    VFR   VFR Marginale   IFR   IFR Intensivo   IFR Molto Intensivo
Visibilità : 
Base nubi : 
>= 8 km
>= 3000ft
5 / 8 km
1000 / 3000 ft
1500m / 5 km
500 / 1000 ft
800 / 1500m
200 / 500 ft
< 800m
< 200 ft
Simboli :   Temporali  Nebbia  Neve Forte  Precipitazioni Forti  Vento > 20 kt






- Altitudine del aeroporto : 988 ft


KFVE - Northern Aroostook Regional

ULTIMO METAR :
  • 161153Z AUTO 24004KT 2SM RA BR FEW027 BKN070 OVC095 21/19 A2973 RMK AO2 LTG DSNT SE AND S RAB08 SLP062 P0008 60008 70008 T02060189 10217 20200 51008

METARs OBSOLETI :
  • 161141Z AUTO 24006KT 3SM -RA BR FEW060 FEW075 OVC095 20/18 A2974 RMK AO2 RAB08 P0005 T02000183
  • 161130Z AUTO 25005KT 2 1/2SM RA BR FEW060 SCT075 OVC095 21/18 A2974 RMK AO2 LTG DSNT S RAB08 P0003 T02060183
  • 161053Z AUTO 00000KT 10SM CLR 21/18 A2972 RMK AO2 SLP058 T02060183
  • 160953Z AUTO 16004KT 10SM CLR 20/18 A2971 RMK AO2 SLP053 T02000183
  • 160853Z AUTO 24004KT 10SM CLR 20/18 A2971 RMK AO2 SLP053 T02000183 55000
  • 160753Z AUTO 20006KT 10SM CLR 21/18 A2970 RMK AO2 SLP049 T02060183

TAF KFVE
Valido dal 16 a 12 ore il 17 a 12 ore UTC


161120Z 1612/1712 20005KT 5SM -SHRA BKN080
FM161500 18007KT P6SM -SHRA BKN070
FM161800 19008G15KT P6SM -SHRA VCTS BKN080CB
FM170100 23005KT P6SM VCSH BKN060
FIR KZBW / America del Nord



MetMap, La meteo Aeronautica in un colpo d'occhio ! - Copyright ORBIFLY Dicembre 2007 - Disclaimer

ORBIFLY MET'MAP TEAM :

Programmazione e sviluppo : Alexandra Zaïnal
Concezione : Baudouin d'Aumeries
Supporto tecnico e logistico : Manuel Goepfert
Aiuto : Marc-Olivier Méhu
Aiuto per la traduzione : Arnaldo La Scala




FONTI E CREDITI :

   NOAA